Espanola, Canada
Current Conditions -  °F | °C
As of 8:31 AM on Friday 28 Nov 2014 (Local Time) from CYZE Reporting Station
Light Snow Light Snow  
Wind Chill: -3°   Ceiling: Unl
Heat Index:   Visibility: 9mi
Dew Point:   Wind: 7mph
Humidity: 85%   Direction: 340°NNW
Pressure: 30.26"   Gusts: NA
Location:  46.25°N, 81.77°W
Report Text: CYZE 281331Z AUTO 34006KT 9SM -SN FEW140 M13/M15 A3026 RMK ICG SLP262
Loading
Personal Weather Stations






























Interactive Weather Map New forecast layout! Learn more

10-Day Weather Forecast

Advertisements
Track Severe Weather on mobile